Time;durP1;ratioP1;P1;durP2;ratioP2;P2;SDS_P1;SDS_P2;PMS_P1;PMS_P2;Temp;Humidity;BMP_temperature;BMP_pressure;BME280_temperature;BME280_humidity;BME280_pressure;Samples;Min_cycle;Max_cycle;Signal;HPM_P1;HPM_P2
2021/03/31 00:01:56;;;;;;;11.93;5.93;;;;;;;;;;5096976;28;20463;-72
2021/03/31 00:04:24;;;;;;;7.40;4.80;;;;;;;;;;5097138;28;20914;-72
2021/03/31 00:06:51;;;;;;;9.40;5.17;;;;;;;;;;5096770;28;20479;-71
2021/03/31 00:09:18;;;;;;;8.67;5.70;;;;;;;;;;5097077;28;20451;-71
2021/03/31 00:11:46;;;;;;;9.43;6.00;;;;;;;;;;5096534;28;20459;-72
2021/03/31 00:14:14;;;;;;;8.67;6.00;;;;;;;;;;5097596;28;20448;-72
2021/03/31 00:16:41;;;;;;;12.73;6.40;;;;;;;;;;5097211;28;20452;-72
2021/03/31 00:19:09;;;;;;;10.43;5.77;;;;;;;;;;5096615;28;20460;-72
2021/03/31 00:21:36;;;;;;;10.90;5.67;;;;;;;;;;5097165;28;20798;-72
2021/03/31 00:24:04;;;;;;;8.50;5.20;;;;;;;;;;5096606;28;20464;-71
2021/03/31 00:26:32;;;;;;;7.93;5.70;;;;;;;;;;5096927;28;20767;-72
2021/03/31 00:28:59;;;;;;;6.47;4.97;;;;;;;;;;5096993;28;20464;-72
2021/03/31 00:31:26;;;;;;;10.10;5.30;;;;;;;;;;5096438;28;20478;-72
2021/03/31 00:33:53;;;;;;;18.13;5.80;;;;;;;;;;5096969;28;20463;-72
2021/03/31 00:36:20;;;;;;;7.70;5.47;;;;;;;;;;5097324;28;20448;-72
2021/03/31 00:38:47;;;;;;;9.40;5.83;;;;;;;;;;5096975;28;20452;-72
2021/03/31 00:41:14;;;;;;;13.70;6.60;;;;;;;;;;5097563;28;20437;-72
2021/03/31 00:43:42;;;;;;;9.83;5.87;;;;;;;;;;5096145;28;20446;-71
2021/03/31 00:46:09;;;;;;;8.13;6.07;;;;;;;;;;5096588;28;20491;-72
2021/03/31 00:48:37;;;;;;;12.60;5.67;;;;;;;;;;5096674;28;20604;-72
2021/03/31 00:51:04;;;;;;;9.70;6.13;;;;;;;;;;5097336;28;20455;-71
2021/03/31 00:53:32;;;;;;;11.10;6.50;;;;;;;;;;5099959;28;20455;-72
2021/03/31 00:56:00;;;;;;;9.77;6.47;;;;;;;;;;5100193;28;20936;-72
2021/03/31 00:58:27;;;;;;;8.13;5.23;;;;;;;;;;5100134;28;20448;-72
2021/03/31 01:00:56;;;;;;;10.53;6.07;;;;;;;;;;5100142;28;20837;-72
2021/03/31 01:03:23;;;;;;;11.00;5.90;;;;;;;;;;5100078;28;20463;-72
2021/03/31 01:05:50;;;;;;;11.60;6.13;;;;;;;;;;5100422;28;20502;-72
2021/03/31 01:08:17;;;;;;;10.33;7.07;;;;;;;;;;5099657;28;20447;-72
2021/03/31 01:10:46;;;;;;;14.03;6.93;;;;;;;;;;5099060;28;20876;-71
2021/03/31 01:13:21;;;;;;;6.67;4.87;;;;;;;;;;5099967;28;20891;-71
2021/03/31 01:15:50;;;;;;;10.13;6.20;;;;;;;;;;5100045;28;20524;-71
2021/03/31 01:18:23;;;;;;;11.80;6.13;;;;;;;;;;5100123;28;20475;-71
2021/03/31 01:21:12;;;;;;;10.50;5.80;;;;;;;;;;5099755;28;20483;-71
2021/03/31 01:24:12;;;;;;;11.23;5.87;;;;;;;;;;5093779;28;20520;-71
2021/03/31 01:26:42;;;;;;;8.03;5.83;;;;;;;;;;5099780;28;20487;-71
2021/03/31 01:29:22;;;;;;;10.80;5.20;;;;;;;;;;5099442;28;20594;-71
2021/03/31 01:31:58;;;;;;;6.73;4.97;;;;;;;;;;5099767;28;20481;-71
2021/03/31 01:34:36;;;;;;;10.07;5.70;;;;;;;;;;5099977;28;20963;-71
2021/03/31 01:37:04;;;;;;;8.13;5.87;;;;;;;;;;5099378;28;20491;-71
2021/03/31 01:39:32;;;;;;;12.57;6.40;;;;;;;;;;5099088;28;20472;-72
2021/03/31 01:41:59;;;;;;;9.57;6.73;;;;;;;;;;5099159;28;20447;-71
2021/03/31 01:44:27;;;;;;;10.10;6.20;;;;;;;;;;5099467;28;20468;-71
2021/03/31 01:46:57;;;;;;;13.33;6.83;;;;;;;;;;5099385;28;20495;-71
2021/03/31 01:49:25;;;;;;;9.17;6.40;;;;;;;;;;5099941;28;20451;-71
2021/03/31 01:52:02;;;;;;;7.57;5.77;;;;;;;;;;5098944;28;20482;-71
2021/03/31 01:54:30;;;;;;;10.60;5.77;;;;;;;;;;5098992;28;20463;-71
2021/03/31 01:56:58;;;;;;;10.90;6.07;;;;;;;;;;5099355;28;20494;-71
2021/03/31 01:59:25;;;;;;;12.70;6.30;;;;;;;;;;5098881;28;20452;-71
2021/03/31 02:01:53;;;;;;;15.10;5.80;;;;;;;;;;5099160;28;20879;-71
2021/03/31 02:04:21;;;;;;;11.53;5.67;;;;;;;;;;5098351;28;20449;-71
2021/03/31 02:06:48;;;;;;;9.03;5.63;;;;;;;;;;5098379;28;20553;-71
2021/03/31 02:09:16;;;;;;;6.67;5.10;;;;;;;;;;5098622;28;20871;-71
2021/03/31 02:11:44;;;;;;;6.87;5.33;;;;;;;;;;5099182;28;20467;-71
2021/03/31 02:14:13;;;;;;;9.57;5.93;;;;;;;;;;5099175;28;20448;-71
2021/03/31 02:16:42;;;;;;;8.93;6.17;;;;;;;;;;5102219;28;20470;-71
2021/03/31 02:19:12;;;;;;;8.77;5.40;;;;;;;;;;5118860;27;20447;-71
2021/03/31 02:21:42;;;;;;;9.70;6.47;;;;;;;;;;5119583;27;20451;-71
2021/03/31 02:24:09;;;;;;;10.90;6.27;;;;;;;;;;5118740;27;20516;-71
2021/03/31 02:26:37;;;;;;;10.77;6.30;;;;;;;;;;5119261;27;20487;-72
2021/03/31 02:29:04;;;;;;;8.93;5.40;;;;;;;;;;5119265;27;20451;-72
2021/03/31 02:31:31;;;;;;;9.00;5.47;;;;;;;;;;5119627;27;21010;-72
2021/03/31 02:33:59;;;;;;;9.63;6.30;;;;;;;;;;5119022;27;20517;-72
2021/03/31 02:36:26;;;;;;;11.30;6.37;;;;;;;;;;5118998;27;20929;-72
2021/03/31 02:38:54;;;;;;;8.87;6.60;;;;;;;;;;5118961;27;20520;-72
2021/03/31 02:41:21;;;;;;;6.97;5.60;;;;;;;;;;5118883;27;20451;-72
2021/03/31 02:43:50;;;;;;;12.00;6.50;;;;;;;;;;5118959;27;20459;-72
2021/03/31 02:46:19;;;;;;;12.90;6.07;;;;;;;;;;5118433;27;20552;-72
2021/03/31 02:48:48;;;;;;;13.10;7.57;;;;;;;;;;5118676;27;20440;-72
2021/03/31 02:51:16;;;;;;;11.30;7.47;;;;;;;;;;5118918;27;20527;-72
2021/03/31 02:53:43;;;;;;;12.10;6.83;;;;;;;;;;5118514;27;20443;-72
2021/03/31 02:56:10;;;;;;;15.47;9.10;;;;;;;;;;5119336;27;20459;-72
2021/03/31 02:58:39;;;;;;;12.90;8.13;;;;;;;;;;5118159;27;20459;-72
2021/03/31 03:01:07;;;;;;;13.83;7.10;;;;;;;;;;5118354;27;20474;-72
2021/03/31 03:03:34;;;;;;;10.23;7.30;;;;;;;;;;5119326;27;20469;-72
2021/03/31 03:06:01;;;;;;;9.10;5.97;;;;;;;;;;5118788;27;20991;-72
2021/03/31 03:08:29;;;;;;;10.37;7.40;;;;;;;;;;5118386;27;21065;-72
2021/03/31 03:10:59;;;;;;;14.40;7.77;;;;;;;;;;5118310;27;20474;-72
2021/03/31 03:13:27;;;;;;;11.73;6.63;;;;;;;;;;5118551;27;20490;-72
2021/03/31 03:15:54;;;;;;;8.60;6.43;;;;;;;;;;5118371;27;20466;-73
2021/03/31 03:18:22;;;;;;;12.77;6.80;;;;;;;;;;5118527;27;20482;-72
2021/03/31 03:20:50;;;;;;;8.43;6.63;;;;;;;;;;5117999;27;20458;-72
2021/03/31 03:23:17;;;;;;;8.30;5.67;;;;;;;;;;5117508;27;20870;-71
2021/03/31 03:25:45;;;;;;;9.40;5.37;;;;;;;;;;5117616;27;20577;-71
2021/03/31 03:28:13;;;;;;;10.90;6.50;;;;;;;;;;5117746;27;20468;-71
2021/03/31 03:30:40;;;;;;;10.80;6.77;;;;;;;;;;5117333;27;20474;-71
2021/03/31 03:33:08;;;;;;;9.90;7.03;;;;;;;;;;5117481;27;20444;-71
2021/03/31 03:35:35;;;;;;;11.57;7.37;;;;;;;;;;5117560;27;20461;-71
2021/03/31 03:38:02;;;;;;;15.40;7.47;;;;;;;;;;5117516;27;20455;-71
2021/03/31 03:40:30;;;;;;;10.70;7.60;;;;;;;;;;5117553;27;20451;-71
2021/03/31 03:42:57;;;;;;;13.90;7.23;;;;;;;;;;5117826;27;20466;-71
2021/03/31 03:45:24;;;;;;;14.37;7.30;;;;;;;;;;5117244;27;20902;-72
2021/03/31 03:47:52;;;;;;;11.67;6.43;;;;;;;;;;5117434;27;20473;-72
2021/03/31 03:50:43;;;;;;;9.00;5.33;;;;;;;;;;5117513;27;20443;-71
2021/03/31 03:53:11;;;;;;;9.50;6.67;;;;;;;;;;5117591;27;20451;-71
2021/03/31 03:55:38;;;;;;;9.60;5.00;;;;;;;;;;5116520;28;20456;-71
2021/03/31 03:58:07;;;;;;;8.00;5.80;;;;;;;;;;5116880;28;20850;-71
2021/03/31 04:01:05;;;;;;;9.30;6.57;;;;;;;;;;5117192;28;20457;-71
2021/03/31 04:03:32;;;;;;;10.00;6.40;;;;;;;;;;5116505;28;20459;-71
2021/03/31 04:05:59;;;;;;;10.27;6.80;;;;;;;;;;5117194;28;20567;-71
2021/03/31 04:08:27;;;;;;;17.23;8.00;;;;;;;;;;5116718;28;20465;-71
2021/03/31 04:10:55;;;;;;;10.20;6.83;;;;;;;;;;5116096;28;20465;-71
2021/03/31 04:13:22;;;;;;;11.63;7.37;;;;;;;;;;5116641;28;20462;-72
2021/03/31 04:15:52;;;;;;;12.13;6.67;;;;;;;;;;5116969;28;20457;-71
2021/03/31 04:18:20;;;;;;;11.37;7.40;;;;;;;;;;5116242;28;20495;-71
2021/03/31 04:20:49;;;;;;;8.97;6.50;;;;;;;;;;5116164;28;20511;-71
2021/03/31 04:23:16;;;;;;;10.23;7.00;;;;;;;;;;5116166;28;20465;-71
2021/03/31 04:25:44;;;;;;;11.50;7.80;;;;;;;;;;5115415;28;20528;-71
2021/03/31 04:28:12;;;;;;;9.67;7.50;;;;;;;;;;5115992;28;20984;-72
2021/03/31 04:30:40;;;;;;;11.07;8.77;;;;;;;;;;5117163;28;20445;-71
2021/03/31 04:33:10;;;;;;;15.57;9.43;;;;;;;;;;5116333;28;20450;-71
2021/03/31 04:35:37;;;;;;;12.07;8.30;;;;;;;;;;5116551;28;20449;-71
2021/03/31 04:38:08;;;;;;;18.23;8.30;;;;;;;;;;5115903;28;20462;-71
2021/03/31 04:40:42;;;;;;;13.10;8.50;;;;;;;;;;5115561;28;20512;-71
2021/03/31 04:43:09;;;;;;;11.13;8.83;;;;;;;;;;5116105;28;20515;-71
2021/03/31 04:45:36;;;;;;;11.30;9.60;;;;;;;;;;5115983;28;20485;-71
2021/03/31 04:48:04;;;;;;;14.23;8.30;;;;;;;;;;5116193;28;20459;-71
2021/03/31 04:50:31;;;;;;;16.83;8.77;;;;;;;;;;5115862;28;20462;-71
2021/03/31 04:52:58;;;;;;;12.93;8.57;;;;;;;;;;5116190;28;20456;-71
2021/03/31 04:55:25;;;;;;;15.77;9.30;;;;;;;;;;5116154;28;20459;-71
2021/03/31 04:57:52;;;;;;;14.63;8.07;;;;;;;;;;5115573;28;20746;-71
2021/03/31 05:00:20;;;;;;;14.13;9.10;;;;;;;;;;5115956;28;20454;-72
2021/03/31 05:02:47;;;;;;;13.20;8.80;;;;;;;;;;5115425;28;20477;-71
2021/03/31 05:05:15;;;;;;;17.17;8.70;;;;;;;;;;5115333;28;20450;-71
2021/03/31 05:07:42;;;;;;;19.97;9.77;;;;;;;;;;5114897;28;20766;-72
2021/03/31 05:10:10;;;;;;;10.93;7.93;;;;;;;;;;5112596;28;20959;-71
2021/03/31 05:12:37;;;;;;;16.67;10.10;;;;;;;;;;5096008;28;20535;-73
2021/03/31 05:15:05;;;;;;;15.03;8.97;;;;;;;;;;5096296;28;20452;-72
2021/03/31 05:17:33;;;;;;;12.83;8.07;;;;;;;;;;5095095;28;20730;-72
2021/03/31 05:20:01;;;;;;;14.07;8.60;;;;;;;;;;5095061;28;20451;-72
2021/03/31 05:22:29;;;;;;;9.27;7.90;;;;;;;;;;5095829;28;20452;-72
2021/03/31 05:24:58;;;;;;;20.13;9.27;;;;;;;;;;5095135;28;20447;-73
2021/03/31 05:27:25;;;;;;;17.50;8.47;;;;;;;;;;5104024;27;20485;-72
2021/03/31 05:29:53;;;;;;;14.30;7.63;;;;;;;;;;5115877;27;20458;-72
2021/03/31 05:32:20;;;;;;;13.20;8.33;;;;;;;;;;5115158;27;20458;-72
2021/03/31 05:34:47;;;;;;;11.63;8.60;;;;;;;;;;5116068;27;20468;-72
2021/03/31 05:37:14;;;;;;;14.30;7.93;;;;;;;;;;5114547;27;20462;-72
2021/03/31 05:39:42;;;;;;;18.67;7.90;;;;;;;;;;5118997;27;20533;-72
2021/03/31 05:42:14;;;;;;;14.93;9.00;;;;;;;;;;5118355;27;20450;-72
2021/03/31 05:44:42;;;;;;;13.33;8.60;;;;;;;;;;5117925;27;20454;-72
2021/03/31 05:47:12;;;;;;;14.27;8.27;;;;;;;;;;5118435;27;20608;-72
2021/03/31 05:49:40;;;;;;;19.50;9.57;;;;;;;;;;5118491;27;20458;-72
2021/03/31 05:52:10;;;;;;;11.67;7.47;;;;;;;;;;5116691;27;20885;-72
2021/03/31 05:54:38;;;;;;;16.33;9.50;;;;;;;;;;5118788;27;20472;-72
2021/03/31 05:57:05;;;;;;;18.37;9.47;;;;;;;;;;5117922;27;20613;-71
2021/03/31 05:59:32;;;;;;;15.30;9.47;;;;;;;;;;5118166;27;20890;-72
2021/03/31 06:02:05;;;;;;;21.00;10.03;;;;;;;;;;5117653;27;20442;-72
2021/03/31 06:04:34;;;;;;;12.97;9.23;;;;;;;;;;5118042;27;20455;-71
2021/03/31 06:07:06;;;;;;;14.23;8.70;;;;;;;;;;5117963;27;20930;-72
2021/03/31 06:09:56;;;;;;;12.37;8.37;;;;;;;;;;5118252;27;20459;-72
2021/03/31 06:12:28;;;;;;;16.67;9.60;;;;;;;;;;5116673;27;20454;-71
2021/03/31 06:14:55;;;;;;;14.80;9.40;;;;;;;;;;5117664;27;20727;-71
2021/03/31 06:17:23;;;;;;;18.03;10.03;;;;;;;;;;5118500;27;20465;-72
2021/03/31 06:19:50;;;;;;;16.37;9.63;;;;;;;;;;5117881;27;20447;-72
2021/03/31 06:22:21;;;;;;;13.17;8.30;;;;;;;;;;5114230;27;21089;-72
2021/03/31 06:25:01;;;;;;;14.93;9.27;;;;;;;;;;5117035;27;20474;-71
2021/03/31 06:27:29;;;;;;;13.33;9.27;;;;;;;;;;5115090;27;20474;-72
2021/03/31 06:30:04;;;;;;;12.50;8.77;;;;;;;;;;5107270;27;20448;-71
2021/03/31 06:32:38;;;;;;;16.10;9.83;;;;;;;;;;5106192;27;20864;-72
2021/03/31 06:35:07;;;;;;;15.90;9.30;;;;;;;;;;5117901;27;20440;-72
2021/03/31 06:37:36;;;;;;;15.00;9.87;;;;;;;;;;5116254;28;20528;-72
2021/03/31 06:40:06;;;;;;;13.90;9.50;;;;;;;;;;5108459;27;20898;-72
2021/03/31 06:45:36;;;;;;;18.17;9.60;;;;;;;;;;5106547;28;20477;-73
2021/03/31 06:48:08;;;;;;;14.53;10.97;;;;;;;;;;5115978;28;20436;-72
2021/03/31 06:50:50;;;;;;;13.40;8.07;;;;;;;;;;5116772;28;20981;-72
2021/03/31 06:53:26;;;;;;;13.70;9.03;;;;;;;;;;5117624;28;20782;-73
2021/03/31 06:55:59;;;;;;;20.90;10.77;;;;;;;;;;5097053;28;20470;-72
2021/03/31 06:58:26;;;;;;;17.03;10.10;;;;;;;;;;5107734;28;20550;-73
2021/03/31 07:00:53;;;;;;;17.37;9.60;;;;;;;;;;5117365;27;20721;-71
2021/03/31 07:03:21;;;;;;;16.03;8.80;;;;;;;;;;5116682;28;20884;-71
2021/03/31 07:06:09;;;;;;;16.43;8.80;;;;;;;;;;5121569;28;20509;-72
2021/03/31 07:08:37;;;;;;;16.33;10.07;;;;;;;;;;5137663;27;20465;-73
2021/03/31 07:11:05;;;;;;;12.73;7.90;;;;;;;;;;5137230;27;20586;-73
2021/03/31 07:13:33;;;;;;;15.07;9.63;;;;;;;;;;5136627;27;20457;-72
2021/03/31 07:16:01;;;;;;;19.87;10.30;;;;;;;;;;5136837;27;20454;-72
2021/03/31 07:18:30;;;;;;;21.97;9.83;;;;;;;;;;5127068;27;20439;-74
2021/03/31 07:21:00;;;;;;;17.17;10.27;;;;;;;;;;5117122;28;20455;-74
2021/03/31 07:23:28;;;;;;;14.93;9.83;;;;;;;;;;5115394;28;20474;-72
2021/03/31 07:25:59;;;;;;;17.87;9.50;;;;;;;;;;5105429;28;20488;-73
2021/03/31 07:28:28;;;;;;;12.23;9.07;;;;;;;;;;5097097;28;20485;-73
2021/03/31 07:30:58;;;;;;;17.37;9.30;;;;;;;;;;5096226;28;20870;-72
2021/03/31 07:33:29;;;;;;;16.10;9.77;;;;;;;;;;5098752;28;20463;-72
2021/03/31 07:35:56;;;;;;;17.50;9.50;;;;;;;;;;5096870;28;20484;-72
2021/03/31 07:38:25;;;;;;;14.10;10.10;;;;;;;;;;5109814;27;20455;-72
2021/03/31 07:40:53;;;;;;;14.93;9.20;;;;;;;;;;5116350;27;20565;-73
2021/03/31 07:43:24;;;;;;;21.20;11.90;;;;;;;;;;5116792;27;20532;-73
2021/03/31 07:45:56;;;;;;;18.20;11.73;;;;;;;;;;5103829;27;20523;-72
2021/03/31 07:48:24;;;;;;;20.00;11.10;;;;;;;;;;5096521;28;20460;-73
2021/03/31 07:50:51;;;;;;;23.63;12.23;;;;;;;;;;5096492;28;20537;-72
2021/03/31 07:53:22;;;;;;;19.27;12.03;;;;;;;;;;5097447;28;20860;-72
2021/03/31 07:55:50;;;;;;;15.47;9.93;;;;;;;;;;5096016;28;20455;-72
2021/03/31 07:58:29;;;;;;;19.67;11.20;;;;;;;;;;5101868;28;20452;-73
2021/03/31 08:01:02;;;;;;;21.07;11.33;;;;;;;;;;5095770;28;20460;-73
2021/03/31 08:03:30;;;;;;;15.33;9.93;;;;;;;;;;5113832;27;20803;-73
2021/03/31 08:06:14;;;;;;;26.20;12.53;;;;;;;;;;5115635;27;20487;-73
2021/03/31 08:09:11;;;;;;;18.13;11.17;;;;;;;;;;5116062;27;20439;-72
2021/03/31 08:11:50;;;;;;;21.30;11.07;;;;;;;;;;5096564;28;20843;-73
2021/03/31 08:14:26;;;;;;;18.33;10.20;;;;;;;;;;5098044;28;20467;-73
2021/03/31 08:16:56;;;;;;;17.90;10.03;;;;;;;;;;5100511;28;20458;-73
2021/03/31 08:19:31;;;;;;;17.53;11.37;;;;;;;;;;5101494;28;20474;-72
2021/03/31 08:21:59;;;;;;;20.10;12.40;;;;;;;;;;5095397;28;20448;-72
2021/03/31 08:24:40;;;;;;;20.23;11.70;;;;;;;;;;5117292;28;20515;-73
2021/03/31 08:27:12;;;;;;;18.83;10.63;;;;;;;;;;5134494;27;20478;-73
2021/03/31 08:29:52;;;;;;;18.63;11.23;;;;;;;;;;5114996;28;20459;-71
2021/03/31 08:32:22;;;;;;;20.77;11.80;;;;;;;;;;5116190;27;20463;-71
2021/03/31 08:34:53;;;;;;;18.03;11.47;;;;;;;;;;5097377;28;20909;-71
2021/03/31 08:37:24;;;;;;;19.77;10.90;;;;;;;;;;5115390;27;20456;-72
2021/03/31 08:43:02;;;;;;;18.03;11.70;;;;;;;;;;5095561;28;20411;-72
2021/03/31 08:45:36;;;;;;;19.20;10.67;;;;;;;;;;5096837;28;20452;-73
2021/03/31 08:48:14;;;;;;;19.40;9.43;;;;;;;;;;5109386;27;20477;-73
2021/03/31 08:50:48;;;;;;;16.50;10.33;;;;;;;;;;5104309;27;20457;-73
2021/03/31 08:53:18;;;;;;;18.20;10.97;;;;;;;;;;5105912;28;20497;-72
2021/03/31 08:55:48;;;;;;;19.63;10.40;;;;;;;;;;5102643;27;20468;-70
2021/03/31 08:58:19;;;;;;;15.70;11.47;;;;;;;;;;5083275;28;20456;-71
2021/03/31 09:00:51;;;;;;;17.93;9.03;;;;;;;;;;5115013;27;20968;-72
2021/03/31 09:03:19;;;;;;;16.07;8.80;;;;;;;;;;5114264;27;20465;-71
2021/03/31 09:06:04;;;;;;;20.20;12.43;;;;;;;;;;5106984;28;20491;-71
2021/03/31 09:08:32;;;;;;;18.97;11.80;;;;;;;;;;5095048;28;20898;-71
2021/03/31 09:11:00;;;;;;;15.67;9.70;;;;;;;;;;5114760;27;20542;-71
2021/03/31 09:13:41;;;;;;;19.33;10.20;;;;;;;;;;5119162;27;20462;-71
2021/03/31 09:16:13;;;;;;;18.10;8.97;;;;;;;;;;5119315;27;20463;-72
2021/03/31 09:18:45;;;;;;;14.83;8.47;;;;;;;;;;5100890;27;20918;-73
2021/03/31 09:21:29;;;;;;;18.27;11.10;;;;;;;;;;5102055;27;20451;-72
2021/03/31 09:23:59;;;;;;;12.80;8.50;;;;;;;;;;5107365;27;20439;-72
2021/03/31 09:26:27;;;;;;;14.90;9.80;;;;;;;;;;5121853;27;20482;-74
2021/03/31 09:28:55;;;;;;;14.20;8.53;;;;;;;;;;5118954;28;20450;-72
2021/03/31 09:31:24;;;;;;;15.47;9.67;;;;;;;;;;5118451;28;20451;-73
2021/03/31 09:33:53;;;;;;;16.97;9.20;;;;;;;;;;5114685;28;20532;-72
2021/03/31 09:36:20;;;;;;;19.43;11.87;;;;;;;;;;5099341;28;20781;-72
2021/03/31 09:38:58;;;;;;;15.80;9.70;;;;;;;;;;5111959;28;20855;-72
2021/03/31 09:41:31;;;;;;;13.53;8.70;;;;;;;;;;5116349;27;20439;-73
2021/03/31 09:44:03;;;;;;;13.10;8.37;;;;;;;;;;5099128;28;20549;-71
2021/03/31 09:46:32;;;;;;;16.10;8.70;;;;;;;;;;5101889;28;20514;-72
2021/03/31 09:49:12;;;;;;;15.10;9.17;;;;;;;;;;5098849;28;20625;-72
2021/03/31 09:51:48;;;;;;;15.70;9.33;;;;;;;;;;5100360;28;20833;-73
2021/03/31 09:54:15;;;;;;;11.83;7.90;;;;;;;;;;5106826;27;20944;-73
2021/03/31 09:56:47;;;;;;;14.03;8.67;;;;;;;;;;5098775;28;20444;-73
2021/03/31 09:59:26;;;;;;;14.17;8.17;;;;;;;;;;5107822;28;20470;-72
2021/03/31 10:02:02;;;;;;;16.17;9.70;;;;;;;;;;5115241;27;20459;-72
2021/03/31 10:04:36;;;;;;;10.37;7.40;;;;;;;;;;5118110;28;20459;-72
2021/03/31 10:07:12;;;;;;;14.30;9.93;;;;;;;;;;5118466;27;20475;-72
2021/03/31 10:09:43;;;;;;;13.77;9.30;;;;;;;;;;5116902;28;20451;-72
2021/03/31 10:12:31;;;;;;;15.87;9.50;;;;;;;;;;5118537;28;20448;-72
2021/03/31 10:15:02;;;;;;;12.87;9.37;;;;;;;;;;5099437;27;20454;-73
2021/03/31 10:17:32;;;;;;;18.73;10.63;;;;;;;;;;5119706;27;20458;-74
2021/03/31 10:20:10;;;;;;;13.33;8.80;;;;;;;;;;5118638;27;20470;-72
2021/03/31 10:22:38;;;;;;;13.07;7.27;;;;;;;;;;5119263;27;20451;-72
2021/03/31 10:25:06;;;;;;;15.70;6.93;;;;;;;;;;5116443;27;20467;-72
2021/03/31 10:27:45;;;;;;;13.70;8.80;;;;;;;;;;5116327;27;20482;-72
2021/03/31 10:30:23;;;;;;;17.40;8.13;;;;;;;;;;5115582;27;20483;-75
2021/03/31 10:32:50;;;;;;;12.20;7.83;;;;;;;;;;5117138;27;20447;-72
2021/03/31 10:35:18;;;;;;;13.90;8.90;;;;;;;;;;5110672;27;20462;-72
2021/03/31 10:38:01;;;;;;;11.20;6.97;;;;;;;;;;5109136;27;20733;-73
2021/03/31 10:40:53;;;;;;;11.37;7.40;;;;;;;;;;5117436;27;20470;-71
2021/03/31 10:49:16;;;;;;;10.93;7.13;;;;;;;;;;5109846;28;20442;-72
2021/03/31 10:51:55;;;;;;;10.60;6.10;;;;;;;;;;5112777;27;20467;-73
2021/03/31 10:54:26;;;;;;;11.50;7.53;;;;;;;;;;5101712;28;20573;-73
2021/03/31 10:56:54;;;;;;;11.43;6.27;;;;;;;;;;5101362;28;20455;-72
2021/03/31 10:59:21;;;;;;;13.70;6.70;;;;;;;;;;5117027;28;20805;-71
2021/03/31 11:01:56;;;;;;;12.57;6.53;;;;;;;;;;5107888;27;20804;-72
2021/03/31 11:04:26;;;;;;;16.37;7.97;;;;;;;;;;5114758;28;20493;-72
2021/03/31 11:06:54;;;;;;;11.07;5.27;;;;;;;;;;5113846;28;20919;-73
2021/03/31 11:12:07;;;;;;;13.50;5.60;;;;;;;;;;5108476;27;20494;-71
2021/03/31 11:14:35;;;;;;;10.93;5.27;;;;;;;;;;5113809;27;20519;-70
2021/03/31 11:17:07;;;;;;;11.10;4.90;;;;;;;;;;5111643;28;20504;-71
2021/03/31 11:19:47;;;;;;;9.23;5.40;;;;;;;;;;5111879;27;20806;-72
2021/03/31 11:25:40;;;;;;;11.50;7.03;;;;;;;;;;5113375;28;20596;-71
2021/03/31 11:28:12;;;;;;;23.00;5.50;;;;;;;;;;5112128;28;20908;-73
2021/03/31 11:30:39;;;;;;;6.93;4.47;;;;;;;;;;5115739;27;20449;-73
2021/03/31 11:33:06;;;;;;;6.97;4.03;;;;;;;;;;5111673;27;20906;-73
2021/03/31 11:35:36;;;;;;;9.17;4.90;;;;;;;;;;5116004;27;20490;-73
2021/03/31 11:38:14;;;;;;;5.00;3.50;;;;;;;;;;5096823;28;20476;-72
2021/03/31 11:41:07;;;;;;;9.73;4.80;;;;;;;;;;5097599;27;20471;-74
2021/03/31 11:43:35;;;;;;;5.27;3.60;;;;;;;;;;5097493;28;20737;-73
2021/03/31 11:46:02;;;;;;;8.43;4.00;;;;;;;;;;5109915;27;20491;-72
2021/03/31 11:48:30;;;;;;;7.87;5.00;;;;;;;;;;5095958;28;20736;-72
2021/03/31 11:51:02;;;;;;;6.03;3.00;;;;;;;;;;5104047;28;20495;-71
2021/03/31 11:53:33;;;;;;;7.63;4.27;;;;;;;;;;5109133;27;20500;-70
2021/03/31 11:56:01;;;;;;;5.33;3.20;;;;;;;;;;5099217;27;20550;-71
2021/03/31 11:58:28;;;;;;;5.93;2.80;;;;;;;;;;5107824;27;20460;-70
2021/03/31 12:00:55;;;;;;;5.37;2.77;;;;;;;;;;5094603;28;20451;-71
2021/03/31 12:03:24;;;;;;;5.77;2.70;;;;;;;;;;5108426;27;20460;-70
2021/03/31 12:05:52;;;;;;;7.07;2.83;;;;;;;;;;5109458;28;20448;-70
2021/03/31 12:08:19;;;;;;;6.07;2.77;;;;;;;;;;5109582;27;20908;-71
2021/03/31 12:10:47;;;;;;;4.20;2.60;;;;;;;;;;5110281;27;20497;-72
2021/03/31 12:13:17;;;;;;;5.47;3.43;;;;;;;;;;5099223;28;20742;-71
2021/03/31 12:16:20;;;;;;;9.00;2.83;;;;;;;;;;5115062;27;20435;-70
2021/03/31 12:18:48;;;;;;;5.10;3.40;;;;;;;;;;5103972;27;20471;-71
2021/03/31 12:21:15;;;;;;;4.53;3.00;;;;;;;;;;5096167;28;20467;-71
2021/03/31 12:23:44;;;;;;;6.30;3.00;;;;;;;;;;5098305;28;20537;-72
2021/03/31 12:26:13;;;;;;;4.57;3.63;;;;;;;;;;5100092;28;20488;-72
2021/03/31 12:28:49;;;;;;;6.10;2.90;;;;;;;;;;5095444;28;20459;-72
2021/03/31 12:31:17;;;;;;;6.63;3.10;;;;;;;;;;5095330;28;20797;-72
2021/03/31 12:33:45;;;;;;;5.60;2.70;;;;;;;;;;5094323;28;20536;-71
2021/03/31 12:36:12;;;;;;;5.77;2.70;;;;;;;;;;5094333;28;20895;-71
2021/03/31 12:38:39;;;;;;;5.70;3.40;;;;;;;;;;5095334;28;20452;-72
2021/03/31 12:41:07;;;;;;;4.10;2.47;;;;;;;;;;5094858;28;20457;-73
2021/03/31 12:43:34;;;;;;;5.00;3.10;;;;;;;;;;5106592;27;20459;-71
2021/03/31 12:46:02;;;;;;;5.20;2.83;;;;;;;;;;5120144;27;20449;-73
2021/03/31 12:48:30;;;;;;;7.50;2.80;;;;;;;;;;5100192;28;20762;-72
2021/03/31 12:51:01;;;;;;;4.93;3.50;;;;;;;;;;5106307;27;20447;-73
2021/03/31 12:53:31;;;;;;;5.07;2.67;;;;;;;;;;5116798;27;20463;-72
2021/03/31 12:55:59;;;;;;;4.37;2.83;;;;;;;;;;5118303;27;20528;-73
2021/03/31 12:58:27;;;;;;;7.27;3.77;;;;;;;;;;5111363;27;20459;-73
2021/03/31 13:00:54;;;;;;;4.57;2.90;;;;;;;;;;5117752;27;20460;-73
2021/03/31 13:03:23;;;;;;;7.07;3.23;;;;;;;;;;5104980;27;20550;-73
2021/03/31 13:05:50;;;;;;;6.10;3.80;;;;;;;;;;5113174;28;20455;-73
2021/03/31 13:08:18;;;;;;;4.40;3.00;;;;;;;;;;5109239;27;20455;-73
2021/03/31 13:10:46;;;;;;;5.80;3.30;;;;;;;;;;5112723;27;20450;-73
2021/03/31 13:13:19;;;;;;;7.53;2.93;;;;;;;;;;5117122;27;20472;-73
2021/03/31 13:15:59;;;;;;;4.07;2.63;;;;;;;;;;5118607;27;20443;-73
2021/03/31 13:24:23;;;;;;;5.77;3.40;;;;;;;;;;5117307;27;20435;-74
2021/03/31 13:27:02;;;;;;;4.70;3.10;;;;;;;;;;5105846;27;20721;-74
2021/03/31 13:32:17;;;;;;;7.70;4.43;;;;;;;;;;5076436;28;20499;-74
2021/03/31 13:34:48;;;;;;;5.43;3.57;;;;;;;;;;5099644;28;20602;-73
2021/03/31 13:37:17;;;;;;;5.60;3.90;;;;;;;;;;5100947;28;20467;-74
2021/03/31 13:39:48;;;;;;;5.67;3.70;;;;;;;;;;5107200;28;20463;-74
2021/03/31 13:42:16;;;;;;;6.43;3.87;;;;;;;;;;5119599;28;20451;-74
2021/03/31 13:44:55;;;;;;;7.53;4.20;;;;;;;;;;5118217;27;20565;-73
2021/03/31 13:47:43;;;;;;;6.17;3.47;;;;;;;;;;5108025;28;20501;-72
2021/03/31 13:50:25;;;;;;;6.57;4.30;;;;;;;;;;5117213;27;20540;-75
2021/03/31 13:53:02;;;;;;;5.40;4.33;;;;;;;;;;5116088;27;20473;-73
2021/03/31 13:55:51;;;;;;;5.30;3.40;;;;;;;;;;5116960;27;20539;-73
2021/03/31 13:58:24;;;;;;;9.63;3.97;;;;;;;;;;5115974;28;20447;-73
2021/03/31 14:00:54;;;;;;;7.67;4.27;;;;;;;;;;5103086;27;20814;-74
2021/03/31 14:03:26;;;;;;;6.47;4.33;;;;;;;;;;5097543;27;20535;-73
2021/03/31 14:05:54;;;;;;;5.53;3.77;;;;;;;;;;5097213;28;20474;-73
2021/03/31 14:08:22;;;;;;;7.70;3.17;;;;;;;;;;5097583;28;20550;-73
2021/03/31 14:10:50;;;;;;;5.90;3.67;;;;;;;;;;5097371;27;20464;-73
2021/03/31 14:13:17;;;;;;;7.87;4.30;;;;;;;;;;5102830;28;20443;-72
2021/03/31 14:15:45;;;;;;;7.30;4.37;;;;;;;;;;5107556;28;20856;-73
2021/03/31 14:18:13;;;;;;;7.20;3.77;;;;;;;;;;5100719;27;20479;-73
2021/03/31 14:20:41;;;;;;;5.73;3.53;;;;;;;;;;5107289;28;20471;-72
2021/03/31 14:23:09;;;;;;;7.20;3.37;;;;;;;;;;5100966;28;20916;-73
2021/03/31 14:25:36;;;;;;;6.03;3.47;;;;;;;;;;5105548;28;20508;-73
2021/03/31 14:28:06;;;;;;;7.30;3.93;;;;;;;;;;5107911;27;20490;-74
2021/03/31 14:30:44;;;;;;;8.50;4.23;;;;;;;;;;5115658;27;20457;-73
2021/03/31 14:33:14;;;;;;;5.20;3.43;;;;;;;;;;5100701;28;20459;-73
2021/03/31 14:38:30;;;;;;;8.17;3.87;;;;;;;;;;5116366;28;20459;-73
2021/03/31 14:41:00;;;;;;;5.50;3.80;;;;;;;;;;5116990;28;20451;-73
2021/03/31 14:43:29;;;;;;;9.63;3.17;;;;;;;;;;5116063;28;20717;-74
2021/03/31 14:45:58;;;;;;;4.93;2.93;;;;;;;;;;5110999;27;20450;-73
2021/03/31 14:48:25;;;;;;;5.50;3.00;;;;;;;;;;5103916;28;20455;-73
2021/03/31 14:50:54;;;;;;;6.57;2.73;;;;;;;;;;5116249;27;20512;-74
2021/03/31 15:01:39;;;;;;;6.00;2.97;;;;;;;;;;5115598;28;20446;-74
2021/03/31 15:04:18;;;;;;;4.67;2.70;;;;;;;;;;5116289;28;20439;-74
2021/03/31 15:06:45;;;;;;;14.43;3.30;;;;;;;;;;5116830;27;20771;-73
2021/03/31 15:09:12;;;;;;;4.50;3.53;;;;;;;;;;5115083;27;20443;-73
2021/03/31 15:11:43;;;;;;;4.47;3.00;;;;;;;;;;5108224;27;20542;-72
2021/03/31 15:14:11;;;;;;;6.23;3.23;;;;;;;;;;5104449;27;20451;-74
2021/03/31 15:16:39;;;;;;;5.77;3.73;;;;;;;;;;5117673;27;20467;-72
2021/03/31 15:19:11;;;;;;;6.17;3.60;;;;;;;;;;5116324;27;21059;-74
2021/03/31 15:21:45;;;;;;;7.57;4.30;;;;;;;;;;5116185;27;20451;-73
2021/03/31 15:24:12;;;;;;;8.53;4.53;;;;;;;;;;5116588;27;20471;-73
2021/03/31 15:26:48;;;;;;;8.90;4.67;;;;;;;;;;5116707;27;21133;-73
2021/03/31 15:29:16;;;;;;;8.00;6.20;;;;;;;;;;5116521;27;20473;-73
2021/03/31 15:31:43;;;;;;;7.57;4.07;;;;;;;;;;5115963;27;20453;-73